sensor_id;sensor_type;location;lat;lon;timestamp;P1;durP1;ratioP1;P2;durP2;ratioP2
64060;SDS011;60147;55.036;73.242;2023-08-06T00:00:56;17.35;;;7.60;;
64060;SDS011;60147;55.036;73.242;2023-08-06T00:03:22;21.20;;;7.50;;
64060;SDS011;60147;55.036;73.242;2023-08-06T00:05:48;24.58;;;7.32;;
64060;SDS011;60147;55.036;73.242;2023-08-06T00:08:15;18.48;;;7.93;;
64060;SDS011;60147;55.036;73.242;2023-08-06T00:10:40;20.73;;;7.78;;
64060;SDS011;60147;55.036;73.242;2023-08-06T00:13:07;20.30;;;7.93;;
64060;SDS011;60147;55.036;73.242;2023-08-06T00:15:33;19.63;;;7.82;;
64060;SDS011;60147;55.036;73.242;2023-08-06T00:17:58;23.88;;;7.82;;
64060;SDS011;60147;55.036;73.242;2023-08-06T00:20:24;18.45;;;7.95;;
64060;SDS011;60147;55.036;73.242;2023-08-06T00:22:50;25.02;;;8.02;;
64060;SDS011;60147;55.036;73.242;2023-08-06T00:25:16;38.05;;;8.70;;
64060;SDS011;60147;55.036;73.242;2023-08-06T00:27:42;26.23;;;8.45;;
64060;SDS011;60147;55.036;73.242;2023-08-06T00:30:08;32.38;;;8.93;;
64060;SDS011;60147;55.036;73.242;2023-08-06T00:32:34;34.80;;;8.60;;
64060;SDS011;60147;55.036;73.242;2023-08-06T00:35:00;40.05;;;9.27;;
64060;SDS011;60147;55.036;73.242;2023-08-06T00:37:26;26.90;;;9.43;;
64060;SDS011;60147;55.036;73.242;2023-08-06T00:39:52;22.77;;;7.57;;
64060;SDS011;60147;55.036;73.242;2023-08-06T00:42:18;21.85;;;7.97;;
64060;SDS011;60147;55.036;73.242;2023-08-06T00:44:46;21.30;;;7.90;;
64060;SDS011;60147;55.036;73.242;2023-08-06T00:47:12;26.95;;;8.13;;
64060;SDS011;60147;55.036;73.242;2023-08-06T00:49:38;20.73;;;8.75;;
64060;SDS011;60147;55.036;73.242;2023-08-06T00:52:05;29.92;;;8.85;;
64060;SDS011;60147;55.036;73.242;2023-08-06T00:54:31;30.45;;;8.85;;
64060;SDS011;60147;55.036;73.242;2023-08-06T00:56:57;28.27;;;9.15;;
64060;SDS011;60147;55.036;73.242;2023-08-06T00:59:24;21.30;;;8.70;;
64060;SDS011;60147;55.036;73.242;2023-08-06T01:01:51;10.73;;;8.57;;
64060;SDS011;60147;55.036;73.242;2023-08-06T01:04:17;17.90;;;9.15;;
64060;SDS011;60147;55.036;73.242;2023-08-06T01:06:52;15.30;;;8.23;;
64060;SDS011;60147;55.036;73.242;2023-08-06T01:12:24;15.60;;;9.13;;
64060;SDS011;60147;55.036;73.242;2023-08-06T01:17:16;11.75;;;8.82;;
64060;SDS011;60147;55.036;73.242;2023-08-06T01:19:42;14.38;;;9.35;;
64060;SDS011;60147;55.036;73.242;2023-08-06T01:22:08;15.60;;;10.05;;
64060;SDS011;60147;55.036;73.242;2023-08-06T01:24:34;23.35;;;10.35;;
64060;SDS011;60147;55.036;73.242;2023-08-06T01:27:07;17.08;;;9.13;;
64060;SDS011;60147;55.036;73.242;2023-08-06T01:29:35;17.23;;;11.88;;
64060;SDS011;60147;55.036;73.242;2023-08-06T01:32:03;17.95;;;11.75;;
64060;SDS011;60147;55.036;73.242;2023-08-06T01:34:31;15.10;;;10.68;;
64060;SDS011;60147;55.036;73.242;2023-08-06T01:36:58;17.95;;;10.63;;
64060;SDS011;60147;55.036;73.242;2023-08-06T01:39:25;15.23;;;10.63;;
64060;SDS011;60147;55.036;73.242;2023-08-06T01:41:51;14.80;;;10.65;;
64060;SDS011;60147;55.036;73.242;2023-08-06T01:44:17;20.33;;;10.63;;
64060;SDS011;60147;55.036;73.242;2023-08-06T01:46:43;15.05;;;10.48;;
64060;SDS011;60147;55.036;73.242;2023-08-06T01:49:09;21.13;;;11.77;;
64060;SDS011;60147;55.036;73.242;2023-08-06T01:51:35;22.85;;;15.25;;
64060;SDS011;60147;55.036;73.242;2023-08-06T01:54:00;23.92;;;14.75;;
64060;SDS011;60147;55.036;73.242;2023-08-06T01:56:26;25.67;;;14.23;;
64060;SDS011;60147;55.036;73.242;2023-08-06T01:58:52;20.00;;;13.57;;
64060;SDS011;60147;55.036;73.242;2023-08-06T02:01:18;22.25;;;14.27;;
64060;SDS011;60147;55.036;73.242;2023-08-06T02:03:44;25.27;;;14.98;;
64060;SDS011;60147;55.036;73.242;2023-08-06T02:06:10;25.27;;;15.07;;
64060;SDS011;60147;55.036;73.242;2023-08-06T02:08:36;26.73;;;14.75;;
64060;SDS011;60147;55.036;73.242;2023-08-06T02:11:02;32.33;;;18.08;;
64060;SDS011;60147;55.036;73.242;2023-08-06T02:13:30;30.83;;;17.70;;
64060;SDS011;60147;55.036;73.242;2023-08-06T02:15:56;22.35;;;15.85;;
64060;SDS011;60147;55.036;73.242;2023-08-06T02:18:21;25.90;;;13.77;;
64060;SDS011;60147;55.036;73.242;2023-08-06T02:21:00;25.88;;;16.10;;
64060;SDS011;60147;55.036;73.242;2023-08-06T02:23:28;28.75;;;16.05;;
64060;SDS011;60147;55.036;73.242;2023-08-06T02:26:00;33.50;;;16.20;;
64060;SDS011;60147;55.036;73.242;2023-08-06T02:28:27;26.02;;;15.95;;
64060;SDS011;60147;55.036;73.242;2023-08-06T02:30:53;23.42;;;12.48;;
64060;SDS011;60147;55.036;73.242;2023-08-06T02:33:19;27.27;;;16.60;;
64060;SDS011;60147;55.036;73.242;2023-08-06T02:35:45;20.08;;;10.70;;
64060;SDS011;60147;55.036;73.242;2023-08-06T02:38:11;14.55;;;6.60;;
64060;SDS011;60147;55.036;73.242;2023-08-06T02:40:36;20.80;;;8.25;;
64060;SDS011;60147;55.036;73.242;2023-08-06T02:43:08;24.60;;;8.15;;
64060;SDS011;60147;55.036;73.242;2023-08-06T02:45:34;20.17;;;6.57;;
64060;SDS011;60147;55.036;73.242;2023-08-06T02:48:00;16.95;;;6.90;;
64060;SDS011;60147;55.036;73.242;2023-08-06T02:50:26;13.95;;;7.13;;
64060;SDS011;60147;55.036;73.242;2023-08-06T02:52:51;17.15;;;7.47;;
64060;SDS011;60147;55.036;73.242;2023-08-06T02:55:17;27.70;;;12.82;;
64060;SDS011;60147;55.036;73.242;2023-08-06T02:57:46;16.42;;;9.30;;
64060;SDS011;60147;55.036;73.242;2023-08-06T03:00:12;29.85;;;10.43;;
64060;SDS011;60147;55.036;73.242;2023-08-06T03:02:38;26.17;;;10.73;;
64060;SDS011;60147;55.036;73.242;2023-08-06T03:05:17;17.83;;;9.63;;
64060;SDS011;60147;55.036;73.242;2023-08-06T03:07:45;23.35;;;10.13;;
64060;SDS011;60147;55.036;73.242;2023-08-06T03:10:20;31.55;;;13.35;;
64060;SDS011;60147;55.036;73.242;2023-08-06T03:12:47;31.95;;;12.20;;
64060;SDS011;60147;55.036;73.242;2023-08-06T03:15:13;35.85;;;13.93;;
64060;SDS011;60147;55.036;73.242;2023-08-06T03:17:41;30.23;;;12.63;;
64060;SDS011;60147;55.036;73.242;2023-08-06T03:20:09;29.70;;;12.60;;
64060;SDS011;60147;55.036;73.242;2023-08-06T03:22:36;24.30;;;10.55;;
64060;SDS011;60147;55.036;73.242;2023-08-06T03:25:02;25.23;;;10.57;;
64060;SDS011;60147;55.036;73.242;2023-08-06T03:27:28;27.65;;;11.55;;
64060;SDS011;60147;55.036;73.242;2023-08-06T03:29:54;24.33;;;11.70;;
64060;SDS011;60147;55.036;73.242;2023-08-06T03:32:23;29.90;;;13.45;;
64060;SDS011;60147;55.036;73.242;2023-08-06T03:34:49;22.95;;;11.20;;
64060;SDS011;60147;55.036;73.242;2023-08-06T03:37:15;16.63;;;9.05;;
64060;SDS011;60147;55.036;73.242;2023-08-06T03:39:41;15.82;;;7.85;;
64060;SDS011;60147;55.036;73.242;2023-08-06T03:42:08;14.07;;;8.18;;
64060;SDS011;60147;55.036;73.242;2023-08-06T03:44:33;19.95;;;8.43;;
64060;SDS011;60147;55.036;73.242;2023-08-06T03:46:59;14.45;;;8.35;;
64060;SDS011;60147;55.036;73.242;2023-08-06T03:49:25;12.60;;;7.65;;
64060;SDS011;60147;55.036;73.242;2023-08-06T03:51:52;10.68;;;7.53;;
64060;SDS011;60147;55.036;73.242;2023-08-06T03:54:18;11.75;;;7.90;;
64060;SDS011;60147;55.036;73.242;2023-08-06T03:56:43;12.57;;;7.75;;
64060;SDS011;60147;55.036;73.242;2023-08-06T03:59:09;17.23;;;9.40;;
64060;SDS011;60147;55.036;73.242;2023-08-06T04:01:37;15.65;;;9.45;;
64060;SDS011;60147;55.036;73.242;2023-08-06T04:04:03;13.13;;;8.75;;
64060;SDS011;60147;55.036;73.242;2023-08-06T04:06:28;16.92;;;9.02;;
64060;SDS011;60147;55.036;73.242;2023-08-06T04:08:54;14.20;;;8.23;;
64060;SDS011;60147;55.036;73.242;2023-08-06T04:11:20;23.08;;;10.70;;
64060;SDS011;60147;55.036;73.242;2023-08-06T04:13:46;24.85;;;12.18;;
64060;SDS011;60147;55.036;73.242;2023-08-06T04:16:12;20.65;;;9.57;;
64060;SDS011;60147;55.036;73.242;2023-08-06T04:18:40;16.55;;;9.98;;
64060;SDS011;60147;55.036;73.242;2023-08-06T04:21:09;18.85;;;10.38;;
64060;SDS011;60147;55.036;73.242;2023-08-06T04:23:44;21.08;;;9.93;;
64060;SDS011;60147;55.036;73.242;2023-08-06T04:26:30;14.02;;;8.80;;
64060;SDS011;60147;55.036;73.242;2023-08-06T04:28:56;16.60;;;9.10;;
64060;SDS011;60147;55.036;73.242;2023-08-06T04:31:24;16.15;;;8.50;;
64060;SDS011;60147;55.036;73.242;2023-08-06T04:33:49;17.02;;;8.32;;
64060;SDS011;60147;55.036;73.242;2023-08-06T04:36:16;12.52;;;8.05;;
64060;SDS011;60147;55.036;73.242;2023-08-06T04:38:42;15.23;;;8.27;;
64060;SDS011;60147;55.036;73.242;2023-08-06T04:41:10;12.88;;;7.93;;
64060;SDS011;60147;55.036;73.242;2023-08-06T04:43:37;13.82;;;7.85;;
64060;SDS011;60147;55.036;73.242;2023-08-06T04:46:03;23.30;;;8.15;;
64060;SDS011;60147;55.036;73.242;2023-08-06T04:48:28;11.77;;;7.50;;
64060;SDS011;60147;55.036;73.242;2023-08-06T04:50:54;12.82;;;7.88;;
64060;SDS011;60147;55.036;73.242;2023-08-06T04:53:20;10.90;;;7.35;;
64060;SDS011;60147;55.036;73.242;2023-08-06T04:55:46;15.07;;;8.82;;
64060;SDS011;60147;55.036;73.242;2023-08-06T04:58:12;12.73;;;8.35;;
64060;SDS011;60147;55.036;73.242;2023-08-06T05:00:38;10.93;;;7.68;;
64060;SDS011;60147;55.036;73.242;2023-08-06T05:03:05;12.68;;;8.23;;
64060;SDS011;60147;55.036;73.242;2023-08-06T05:05:31;11.93;;;7.75;;
64060;SDS011;60147;55.036;73.242;2023-08-06T05:07:57;11.43;;;7.50;;
64060;SDS011;60147;55.036;73.242;2023-08-06T05:10:26;13.43;;;7.97;;
64060;SDS011;60147;55.036;73.242;2023-08-06T05:12:53;11.37;;;7.63;;
64060;SDS011;60147;55.036;73.242;2023-08-06T05:15:19;13.57;;;7.47;;
64060;SDS011;60147;55.036;73.242;2023-08-06T05:17:45;11.25;;;7.78;;
64060;SDS011;60147;55.036;73.242;2023-08-06T05:20:11;13.90;;;7.78;;
64060;SDS011;60147;55.036;73.242;2023-08-06T05:22:38;10.05;;;7.60;;
64060;SDS011;60147;55.036;73.242;2023-08-06T05:25:04;8.88;;;7.53;;
64060;SDS011;60147;55.036;73.242;2023-08-06T05:27:30;10.82;;;7.65;;
64060;SDS011;60147;55.036;73.242;2023-08-06T05:29:56;8.90;;;6.88;;
64060;SDS011;60147;55.036;73.242;2023-08-06T05:32:22;11.15;;;7.95;;
64060;SDS011;60147;55.036;73.242;2023-08-06T05:34:48;13.57;;;7.10;;
64060;SDS011;60147;55.036;73.242;2023-08-06T05:37:14;12.35;;;7.93;;
64060;SDS011;60147;55.036;73.242;2023-08-06T05:39:39;11.07;;;7.18;;
64060;SDS011;60147;55.036;73.242;2023-08-06T05:42:06;11.57;;;8.80;;
64060;SDS011;60147;55.036;73.242;2023-08-06T05:44:32;15.52;;;7.70;;
64060;SDS011;60147;55.036;73.242;2023-08-06T05:46:58;11.35;;;7.20;;
64060;SDS011;60147;55.036;73.242;2023-08-06T05:49:24;12.35;;;7.93;;
64060;SDS011;60147;55.036;73.242;2023-08-06T05:51:50;11.52;;;7.45;;
64060;SDS011;60147;55.036;73.242;2023-08-06T05:54:18;12.30;;;7.95;;
64060;SDS011;60147;55.036;73.242;2023-08-06T05:56:44;12.30;;;7.43;;
64060;SDS011;60147;55.036;73.242;2023-08-06T05:59:10;14.68;;;7.60;;
64060;SDS011;60147;55.036;73.242;2023-08-06T06:01:36;12.75;;;7.93;;
64060;SDS011;60147;55.036;73.242;2023-08-06T06:04:02;13.75;;;7.88;;
64060;SDS011;60147;55.036;73.242;2023-08-06T06:06:28;14.60;;;7.68;;
64060;SDS011;60147;55.036;73.242;2023-08-06T06:08:54;13.57;;;7.47;;
64060;SDS011;60147;55.036;73.242;2023-08-06T06:11:20;12.25;;;8.10;;
64060;SDS011;60147;55.036;73.242;2023-08-06T06:14:06;24.05;;;9.35;;
64060;SDS011;60147;55.036;73.242;2023-08-06T06:16:32;59.72;;;13.63;;
64060;SDS011;60147;55.036;73.242;2023-08-06T06:18:57;18.45;;;8.80;;
64060;SDS011;60147;55.036;73.242;2023-08-06T06:21:23;12.20;;;8.40;;
64060;SDS011;60147;55.036;73.242;2023-08-06T06:23:49;12.82;;;8.13;;
64060;SDS011;60147;55.036;73.242;2023-08-06T06:26:17;15.38;;;8.18;;
64060;SDS011;60147;55.036;73.242;2023-08-06T06:28:43;13.27;;;8.43;;
64060;SDS011;60147;55.036;73.242;2023-08-06T06:31:09;17.08;;;8.25;;
64060;SDS011;60147;55.036;73.242;2023-08-06T06:33:36;11.23;;;7.68;;
64060;SDS011;60147;55.036;73.242;2023-08-06T06:36:02;10.32;;;7.72;;
64060;SDS011;60147;55.036;73.242;2023-08-06T06:38:33;11.63;;;7.25;;
64060;SDS011;60147;55.036;73.242;2023-08-06T06:40:59;13.45;;;7.43;;
64060;SDS011;60147;55.036;73.242;2023-08-06T06:43:25;12.43;;;7.88;;
64060;SDS011;60147;55.036;73.242;2023-08-06T06:45:57;11.93;;;8.02;;
64060;SDS011;60147;55.036;73.242;2023-08-06T06:48:25;12.90;;;8.50;;
64060;SDS011;60147;55.036;73.242;2023-08-06T06:50:51;13.75;;;8.20;;
64060;SDS011;60147;55.036;73.242;2023-08-06T06:53:17;10.13;;;7.95;;
64060;SDS011;60147;55.036;73.242;2023-08-06T06:55:42;20.73;;;8.65;;
64060;SDS011;60147;55.036;73.242;2023-08-06T06:58:08;11.77;;;8.15;;
64060;SDS011;60147;55.036;73.242;2023-08-06T07:00:38;11.80;;;8.02;;
64060;SDS011;60147;55.036;73.242;2023-08-06T07:03:04;12.80;;;8.55;;
64060;SDS011;60147;55.036;73.242;2023-08-06T07:05:30;17.50;;;8.00;;
64060;SDS011;60147;55.036;73.242;2023-08-06T07:07:56;13.02;;;7.85;;
64060;SDS011;60147;55.036;73.242;2023-08-06T07:10:22;11.05;;;8.23;;
64060;SDS011;60147;55.036;73.242;2023-08-06T07:12:49;12.43;;;7.30;;
64060;SDS011;60147;55.036;73.242;2023-08-06T07:15:15;11.77;;;8.65;;
64060;SDS011;60147;55.036;73.242;2023-08-06T07:17:43;14.88;;;7.80;;
64060;SDS011;60147;55.036;73.242;2023-08-06T07:20:09;9.35;;;8.07;;
64060;SDS011;60147;55.036;73.242;2023-08-06T07:22:35;11.45;;;7.78;;
64060;SDS011;60147;55.036;73.242;2023-08-06T07:25:01;13.60;;;8.80;;
64060;SDS011;60147;55.036;73.242;2023-08-06T07:27:27;12.40;;;7.47;;
64060;SDS011;60147;55.036;73.242;2023-08-06T07:29:53;13.40;;;7.97;;
64060;SDS011;60147;55.036;73.242;2023-08-06T07:32:19;10.82;;;7.45;;
64060;SDS011;60147;55.036;73.242;2023-08-06T07:34:45;14.18;;;7.80;;
64060;SDS011;60147;55.036;73.242;2023-08-06T07:37:11;10.38;;;7.72;;
64060;SDS011;60147;55.036;73.242;2023-08-06T07:39:37;13.35;;;8.32;;
64060;SDS011;60147;55.036;73.242;2023-08-06T07:42:07;13.25;;;7.90;;
64060;SDS011;60147;55.036;73.242;2023-08-06T07:44:33;22.50;;;7.60;;
64060;SDS011;60147;55.036;73.242;2023-08-06T07:46:59;10.00;;;7.88;;
64060;SDS011;60147;55.036;73.242;2023-08-06T07:49:25;18.70;;;8.20;;
64060;SDS011;60147;55.036;73.242;2023-08-06T07:51:51;12.70;;;8.20;;
64060;SDS011;60147;55.036;73.242;2023-08-06T07:54:19;16.00;;;8.10;;
64060;SDS011;60147;55.036;73.242;2023-08-06T07:56:45;15.77;;;7.88;;
64060;SDS011;60147;55.036;73.242;2023-08-06T07:59:11;12.45;;;7.85;;
64060;SDS011;60147;55.036;73.242;2023-08-06T08:01:37;12.98;;;7.93;;
64060;SDS011;60147;55.036;73.242;2023-08-06T08:04:03;15.52;;;8.35;;
64060;SDS011;60147;55.036;73.242;2023-08-06T08:06:30;10.18;;;8.32;;
64060;SDS011;60147;55.036;73.242;2023-08-06T08:08:56;11.25;;;8.70;;
64060;SDS011;60147;55.036;73.242;2023-08-06T08:11:22;13.55;;;8.27;;
64060;SDS011;60147;55.036;73.242;2023-08-06T08:13:48;15.27;;;8.50;;
64060;SDS011;60147;55.036;73.242;2023-08-06T08:16:14;10.05;;;7.88;;
64060;SDS011;60147;55.036;73.242;2023-08-06T08:18:40;11.77;;;8.20;;
64060;SDS011;60147;55.036;73.242;2023-08-06T08:21:06;9.43;;;7.13;;
64060;SDS011;60147;55.036;73.242;2023-08-06T08:23:51;11.93;;;7.53;;
64060;SDS011;60147;55.036;73.242;2023-08-06T08:26:17;14.57;;;7.68;;
64060;SDS011;60147;55.036;73.242;2023-08-06T08:28:43;13.75;;;7.88;;
64060;SDS011;60147;55.036;73.242;2023-08-06T08:31:09;12.68;;;8.18;;
64060;SDS011;60147;55.036;73.242;2023-08-06T08:33:35;15.20;;;9.07;;
64060;SDS011;60147;55.036;73.242;2023-08-06T08:36:01;25.25;;;10.20;;
64060;SDS011;60147;55.036;73.242;2023-08-06T08:38:27;18.05;;;10.10;;
64060;SDS011;60147;55.036;73.242;2023-08-06T08:41:05;14.88;;;8.55;;
64060;SDS011;60147;55.036;73.242;2023-08-06T08:43:31;14.75;;;8.35;;
64060;SDS011;60147;55.036;73.242;2023-08-06T08:45:57;12.38;;;7.05;;
64060;SDS011;60147;55.036;73.242;2023-08-06T08:48:26;11.07;;;8.05;;
64060;SDS011;60147;55.036;73.242;2023-08-06T08:50:53;14.13;;;8.25;;
64060;SDS011;60147;55.036;73.242;2023-08-06T08:53:18;9.57;;;7.63;;
64060;SDS011;60147;55.036;73.242;2023-08-06T08:55:47;12.10;;;7.45;;
64060;SDS011;60147;55.036;73.242;2023-08-06T08:58:14;12.70;;;7.05;;
64060;SDS011;60147;55.036;73.242;2023-08-06T09:00:43;10.40;;;7.03;;
64060;SDS011;60147;55.036;73.242;2023-08-06T09:03:09;21.60;;;7.78;;
64060;SDS011;60147;55.036;73.242;2023-08-06T09:05:35;11.75;;;6.70;;
64060;SDS011;60147;55.036;73.242;2023-08-06T09:08:04;11.77;;;7.13;;
64060;SDS011;60147;55.036;73.242;2023-08-06T09:10:30;16.88;;;7.68;;
64060;SDS011;60147;55.036;73.242;2023-08-06T09:12:57;12.07;;;7.43;;
64060;SDS011;60147;55.036;73.242;2023-08-06T09:15:24;8.95;;;7.45;;
64060;SDS011;60147;55.036;73.242;2023-08-06T09:17:51;8.23;;;6.40;;
64060;SDS011;60147;55.036;73.242;2023-08-06T09:20:17;8.63;;;6.70;;
64060;SDS011;60147;55.036;73.242;2023-08-06T09:22:43;9.60;;;6.45;;
64060;SDS011;60147;55.036;73.242;2023-08-06T09:25:10;12.85;;;7.38;;
64060;SDS011;60147;55.036;73.242;2023-08-06T09:27:38;9.15;;;7.05;;
64060;SDS011;60147;55.036;73.242;2023-08-06T09:30:05;12.77;;;6.70;;
64060;SDS011;60147;55.036;73.242;2023-08-06T09:32:48;9.10;;;6.97;;
64060;SDS011;60147;55.036;73.242;2023-08-06T09:35:16;10.73;;;6.38;;
64060;SDS011;60147;55.036;73.242;2023-08-06T09:37:42;12.35;;;6.50;;
64060;SDS011;60147;55.036;73.242;2023-08-06T09:40:28;10.73;;;6.57;;
64060;SDS011;60147;55.036;73.242;2023-08-06T09:42:54;11.60;;;7.15;;
64060;SDS011;60147;55.036;73.242;2023-08-06T09:45:20;8.88;;;6.35;;
64060;SDS011;60147;55.036;73.242;2023-08-06T09:47:50;7.97;;;6.10;;
64060;SDS011;60147;55.036;73.242;2023-08-06T09:50:21;11.45;;;6.85;;
64060;SDS011;60147;55.036;73.242;2023-08-06T09:52:47;14.60;;;7.55;;
64060;SDS011;60147;55.036;73.242;2023-08-06T09:55:14;11.90;;;7.05;;
64060;SDS011;60147;55.036;73.242;2023-08-06T09:57:40;9.15;;;6.20;;
64060;SDS011;60147;55.036;73.242;2023-08-06T10:00:08;15.73;;;6.47;;
64060;SDS011;60147;55.036;73.242;2023-08-06T10:02:38;15.50;;;6.60;;
64060;SDS011;60147;55.036;73.242;2023-08-06T10:05:08;11.65;;;6.15;;
64060;SDS011;60147;55.036;73.242;2023-08-06T10:07:34;13.32;;;5.95;;
64060;SDS011;60147;55.036;73.242;2023-08-06T10:10:00;12.05;;;6.55;;
64060;SDS011;60147;55.036;73.242;2023-08-06T10:12:28;12.48;;;5.90;;
64060;SDS011;60147;55.036;73.242;2023-08-06T10:14:55;11.65;;;6.35;;
64060;SDS011;60147;55.036;73.242;2023-08-06T10:17:23;13.25;;;6.28;;
64060;SDS011;60147;55.036;73.242;2023-08-06T10:19:49;10.23;;;6.00;;
64060;SDS011;60147;55.036;73.242;2023-08-06T10:22:16;9.68;;;6.30;;
64060;SDS011;60147;55.036;73.242;2023-08-06T10:27:11;12.30;;;6.00;;
64060;SDS011;60147;55.036;73.242;2023-08-06T10:29:38;8.95;;;5.60;;
64060;SDS011;60147;55.036;73.242;2023-08-06T10:32:04;28.52;;;6.90;;
64060;SDS011;60147;55.036;73.242;2023-08-06T10:37:15;10.23;;;5.70;;
64060;SDS011;60147;55.036;73.242;2023-08-06T10:39:47;9.82;;;5.53;;
64060;SDS011;60147;55.036;73.242;2023-08-06T10:42:21;13.93;;;5.75;;
64060;SDS011;60147;55.036;73.242;2023-08-06T10:45:29;12.38;;;5.55;;
64060;SDS011;60147;55.036;73.242;2023-08-06T10:47:40;22.15;;;6.90;;
64060;SDS011;60147;55.036;73.242;2023-08-06T10:50:13;10.63;;;5.57;;
64060;SDS011;60147;55.036;73.242;2023-08-06T10:52:42;9.48;;;5.60;;
64060;SDS011;60147;55.036;73.242;2023-08-06T10:55:09;13.82;;;5.60;;
64060;SDS011;60147;55.036;73.242;2023-08-06T10:57:35;11.48;;;5.70;;
64060;SDS011;60147;55.036;73.242;2023-08-06T11:00:03;11.75;;;5.43;;
64060;SDS011;60147;55.036;73.242;2023-08-06T11:02:32;12.00;;;5.30;;
64060;SDS011;60147;55.036;73.242;2023-08-06T11:04:58;9.73;;;4.90;;
64060;SDS011;60147;55.036;73.242;2023-08-06T11:07:24;35.78;;;6.40;;
64060;SDS011;60147;55.036;73.242;2023-08-06T11:10:00;10.70;;;4.93;;
64060;SDS011;60147;55.036;73.242;2023-08-06T11:12:26;9.05;;;4.70;;
64060;SDS011;60147;55.036;73.242;2023-08-06T11:14:53;11.38;;;4.82;;
64060;SDS011;60147;55.036;73.242;2023-08-06T11:17:20;9.65;;;4.57;;
64060;SDS011;60147;55.036;73.242;2023-08-06T11:19:47;9.85;;;4.57;;
64060;SDS011;60147;55.036;73.242;2023-08-06T11:22:14;9.88;;;4.80;;
64060;SDS011;60147;55.036;73.242;2023-08-06T11:24:40;6.80;;;4.45;;
64060;SDS011;60147;55.036;73.242;2023-08-06T11:27:15;10.18;;;5.13;;
64060;SDS011;60147;55.036;73.242;2023-08-06T11:29:42;10.55;;;4.85;;
64060;SDS011;60147;55.036;73.242;2023-08-06T11:32:08;7.65;;;4.80;;
64060;SDS011;60147;55.036;73.242;2023-08-06T11:34:35;9.23;;;4.82;;
64060;SDS011;60147;55.036;73.242;2023-08-06T11:37:04;11.07;;;4.85;;
64060;SDS011;60147;55.036;73.242;2023-08-06T11:39:32;9.10;;;5.40;;
64060;SDS011;60147;55.036;73.242;2023-08-06T11:41:57;11.75;;;5.32;;
64060;SDS011;60147;55.036;73.242;2023-08-06T11:44:26;17.13;;;5.07;;
64060;SDS011;60147;55.036;73.242;2023-08-06T11:46:52;10.38;;;5.60;;
64060;SDS011;60147;55.036;73.242;2023-08-06T11:49:18;11.70;;;5.95;;
64060;SDS011;60147;55.036;73.242;2023-08-06T11:51:49;8.02;;;5.13;;
64060;SDS011;60147;55.036;73.242;2023-08-06T11:54:15;11.82;;;5.07;;
64060;SDS011;60147;55.036;73.242;2023-08-06T11:56:41;9.18;;;4.95;;
64060;SDS011;60147;55.036;73.242;2023-08-06T11:59:08;11.80;;;5.40;;
64060;SDS011;60147;55.036;73.242;2023-08-06T12:01:34;19.63;;;4.35;;
64060;SDS011;60147;55.036;73.242;2023-08-06T12:04:00;9.77;;;4.38;;
64060;SDS011;60147;55.036;73.242;2023-08-06T12:06:29;9.05;;;4.60;;
64060;SDS011;60147;55.036;73.242;2023-08-06T12:08:55;10.60;;;4.80;;
64060;SDS011;60147;55.036;73.242;2023-08-06T12:11:21;8.18;;;4.63;;
64060;SDS011;60147;55.036;73.242;2023-08-06T12:13:50;9.45;;;4.85;;
64060;SDS011;60147;55.036;73.242;2023-08-06T12:16:16;14.77;;;4.63;;
64060;SDS011;60147;55.036;73.242;2023-08-06T12:18:44;8.32;;;4.75;;
64060;SDS011;60147;55.036;73.242;2023-08-06T12:21:10;16.48;;;4.75;;
64060;SDS011;60147;55.036;73.242;2023-08-06T12:23:36;7.25;;;3.97;;
64060;SDS011;60147;55.036;73.242;2023-08-06T12:26:02;11.75;;;4.03;;
64060;SDS011;60147;55.036;73.242;2023-08-06T12:28:28;22.40;;;4.97;;
64060;SDS011;60147;55.036;73.242;2023-08-06T12:30:54;35.92;;;5.18;;
64060;SDS011;60147;55.036;73.242;2023-08-06T12:33:20;10.88;;;4.10;;
64060;SDS011;60147;55.036;73.242;2023-08-06T12:35:46;13.98;;;4.20;;
64060;SDS011;60147;55.036;73.242;2023-08-06T12:38:12;9.48;;;4.25;;
64060;SDS011;60147;55.036;73.242;2023-08-06T12:40:39;18.80;;;11.05;;
64060;SDS011;60147;55.036;73.242;2023-08-06T12:43:05;17.30;;;8.77;;
64060;SDS011;60147;55.036;73.242;2023-08-06T12:45:31;15.98;;;10.52;;
64060;SDS011;60147;55.036;73.242;2023-08-06T12:47:56;14.30;;;10.60;;
64060;SDS011;60147;55.036;73.242;2023-08-06T12:50:22;16.70;;;12.60;;
64060;SDS011;60147;55.036;73.242;2023-08-06T12:52:48;18.15;;;13.48;;
64060;SDS011;60147;55.036;73.242;2023-08-06T12:55:14;20.55;;;12.98;;
64060;SDS011;60147;55.036;73.242;2023-08-06T12:57:40;20.00;;;11.85;;
64060;SDS011;60147;55.036;73.242;2023-08-06T13:00:06;10.30;;;7.35;;
64060;SDS011;60147;55.036;73.242;2023-08-06T13:02:32;12.00;;;5.25;;
64060;SDS011;60147;55.036;73.242;2023-08-06T13:04:58;12.85;;;6.28;;
64060;SDS011;60147;55.036;73.242;2023-08-06T13:07:24;15.35;;;4.60;;
64060;SDS011;60147;55.036;73.242;2023-08-06T13:09:51;12.13;;;4.72;;
64060;SDS011;60147;55.036;73.242;2023-08-06T13:12:16;13.27;;;6.30;;
64060;SDS011;60147;55.036;73.242;2023-08-06T13:14:44;14.80;;;11.40;;
64060;SDS011;60147;55.036;73.242;2023-08-06T13:17:10;11.43;;;3.45;;
64060;SDS011;60147;55.036;73.242;2023-08-06T13:19:37;11.20;;;3.08;;
64060;SDS011;60147;55.036;73.242;2023-08-06T13:22:03;9.23;;;3.40;;
64060;SDS011;60147;55.036;73.242;2023-08-06T13:24:30;7.03;;;3.10;;
64060;SDS011;60147;55.036;73.242;2023-08-06T13:26:56;7.32;;;3.17;;
64060;SDS011;60147;55.036;73.242;2023-08-06T13:29:22;6.80;;;2.95;;
64060;SDS011;60147;55.036;73.242;2023-08-06T13:31:48;7.43;;;2.90;;
64060;SDS011;60147;55.036;73.242;2023-08-06T13:34:14;5.88;;;3.15;;
64060;SDS011;60147;55.036;73.242;2023-08-06T13:36:42;8.30;;;3.25;;
64060;SDS011;60147;55.036;73.242;2023-08-06T13:39:08;7.32;;;3.78;;
64060;SDS011;60147;55.036;73.242;2023-08-06T13:41:33;9.18;;;3.42;;
64060;SDS011;60147;55.036;73.242;2023-08-06T13:43:59;8.43;;;3.25;;
64060;SDS011;60147;55.036;73.242;2023-08-06T13:46:25;7.72;;;3.30;;
64060;SDS011;60147;55.036;73.242;2023-08-06T13:48:51;7.32;;;2.92;;
64060;SDS011;60147;55.036;73.242;2023-08-06T13:51:17;8.13;;;4.68;;
64060;SDS011;60147;55.036;73.242;2023-08-06T13:53:45;9.13;;;4.15;;
64060;SDS011;60147;55.036;73.242;2023-08-06T13:56:11;6.22;;;3.42;;
64060;SDS011;60147;55.036;73.242;2023-08-06T13:58:38;4.85;;;3.15;;
64060;SDS011;60147;55.036;73.242;2023-08-06T14:01:04;5.20;;;2.45;;
64060;SDS011;60147;55.036;73.242;2023-08-06T14:03:30;4.85;;;2.58;;
64060;SDS011;60147;55.036;73.242;2023-08-06T14:05:56;8.50;;;2.50;;
64060;SDS011;60147;55.036;73.242;2023-08-06T14:08:22;5.32;;;2.17;;
64060;SDS011;60147;55.036;73.242;2023-08-06T14:10:49;5.07;;;2.30;;
64060;SDS011;60147;55.036;73.242;2023-08-06T14:13:15;4.35;;;2.20;;
64060;SDS011;60147;55.036;73.242;2023-08-06T14:15:41;5.50;;;2.28;;
64060;SDS011;60147;55.036;73.242;2023-08-06T14:18:07;5.95;;;2.55;;
64060;SDS011;60147;55.036;73.242;2023-08-06T14:20:35;6.88;;;2.40;;
64060;SDS011;60147;55.036;73.242;2023-08-06T14:23:01;5.95;;;2.60;;
64060;SDS011;60147;55.036;73.242;2023-08-06T14:25:27;10.02;;;3.00;;
64060;SDS011;60147;55.036;73.242;2023-08-06T14:27:53;9.98;;;2.60;;
64060;SDS011;60147;55.036;73.242;2023-08-06T14:30:19;9.18;;;2.42;;